SBI7520 ZJSY-VNKT
Flight info
| Callsign | SBI7520 |
|---|---|
| Flight time | 3h 54m |
| Altitude | 37100 |
| Route | ZJSY N0440F360 KAG2YD KAGUK DCT ASSAD A206 LPB B465 CTG B594 ONEKA G463 RAJ A201 TEBID G463 BIKIK A201 MONDA G463 UXAGA R581 ROMEO GURAS CL02 LOC11 75LOC 45LOC KTM RW02 VNKT |
| Aircraft | B738/M-SDGIWZ/S |
Departure
| Time | 2026-04-29 03:53 |
|---|---|
| Airport | Sanya Phoenix International Airport (ZJSY) |
Arrival
| Time | 2026-04-29 07:48 |
|---|---|
| Airport | Tribhuvan International Airport (VNKT) |
| Time | Latitude | Longitude | Altitude | Speed | Heading |
|---|---|---|---|---|---|
| 2026-04-29 03:48 | 18.30502 | 109.40350 | 100 ft | 0 kts | 351° |
| 2026-04-29 03:51 | 18.30531 | 109.40344 | 100 ft | 9 kts | 341° |
| 2026-04-29 03:51 | 18.30535 | 109.40253 | 100 ft | 18 kts | 213° |
| 2026-04-29 03:51 | 18.30410 | 109.40212 | 100 ft | 22 kts | 249° |
| 2026-04-29 03:51 | 18.30382 | 109.40017 | 100 ft | 32 kts | 262° |
| 2026-04-29 03:52 | 18.30347 | 109.39748 | 100 ft | 41 kts | 262° |
| 2026-04-29 03:52 | 18.30274 | 109.39616 | 100 ft | 13 kts | 175° |
| 2026-04-29 03:52 | 18.30165 | 109.39629 | 100 ft | 18 kts | 174° |
| 2026-04-29 03:52 | 18.30105 | 109.39771 | 100 ft | 45 kts | 82° |
| 2026-04-29 03:53 | 18.30182 | 109.40367 | 100 ft | 116 kts | 82° |
| 2026-04-29 03:53 | 18.30327 | 109.41428 | 102 ft | 172 kts | 82° |
| 2026-04-29 03:53 | 18.30506 | 109.42767 | 381 ft | 196 kts | 83° |
| 2026-04-29 03:53 | 18.30691 | 109.44200 | 1073 ft | 198 kts | 85° |
| 2026-04-29 03:54 | 18.30857 | 109.45593 | 1759 ft | 200 kts | 84° |
| 2026-04-29 03:54 | 18.31051 | 109.47141 | 1949 ft | 223 kts | 84° |
| 2026-04-29 03:54 | 18.31263 | 109.48779 | 2600 ft | 226 kts | 85° |
| 2026-04-29 03:54 | 18.31475 | 109.50369 | 3304 ft | 226 kts | 81° |
| 2026-04-29 03:55 | 18.32141 | 109.51867 | 3939 ft | 232 kts | 47° |
| 2026-04-29 03:55 | 18.33522 | 109.52714 | 4542 ft | 237 kts | 18° |
| 2026-04-29 03:55 | 18.35127 | 109.53109 | 5173 ft | 241 kts | 6° |
| 2026-04-29 03:55 | 18.36782 | 109.52845 | 5716 ft | 245 kts | 329° |
| 2026-04-29 03:56 | 18.37990 | 109.51672 | 6304 ft | 241 kts | 300° |
| 2026-04-29 03:56 | 18.38767 | 109.50107 | 6906 ft | 240 kts | 284° |
| 2026-04-29 03:56 | 18.38907 | 109.48402 | 7297 ft | 240 kts | 251° |
| 2026-04-29 03:56 | 18.38142 | 109.46872 | 7864 ft | 232 kts | 227° |
| 2026-04-29 03:57 | 18.37062 | 109.45615 | 8342 ft | 236 kts | 218° |
| 2026-04-29 03:57 | 18.35858 | 109.44412 | 8839 ft | 245 kts | 218° |
| 2026-04-29 03:57 | 18.34613 | 109.43150 | 9286 ft | 255 kts | 218° |
| 2026-04-29 03:57 | 18.33320 | 109.41846 | 9834 ft | 261 kts | 218° |
| 2026-04-29 03:58 | 18.32010 | 109.40532 | 10356 ft | 267 kts | 218° |
| 2026-04-29 03:58 | 18.30655 | 109.39172 | 10848 ft | 274 kts | 218° |
| 2026-04-29 03:58 | 18.29251 | 109.37796 | 11432 ft | 276 kts | 216° |
| 2026-04-29 03:58 | 18.27760 | 109.36435 | 11523 ft | 299 kts | 216° |
| 2026-04-29 03:59 | 18.26127 | 109.34937 | 11627 ft | 320 kts | 216° |
| 2026-04-29 03:59 | 18.24419 | 109.33357 | 11688 ft | 342 kts | 217° |
| 2026-04-29 03:59 | 18.22564 | 109.31643 | 11739 ft | 362 kts | 217° |
| 2026-04-29 03:59 | 18.20631 | 109.29858 | 11833 ft | 379 kts | 217° |
| 2026-04-29 04:00 | 18.18634 | 109.28012 | 12238 ft | 386 kts | 217° |
| 2026-04-29 04:00 | 18.16610 | 109.26160 | 12662 ft | 391 kts | 217° |
| 2026-04-29 04:00 | 18.14556 | 109.24290 | 13180 ft | 394 kts | 217° |
| 2026-04-29 04:00 | 18.12488 | 109.22406 | 13627 ft | 398 kts | 217° |
| 2026-04-29 04:01 | 18.10388 | 109.20492 | 14117 ft | 400 kts | 217° |
| 2026-04-29 04:01 | 18.08252 | 109.18652 | 14543 ft | 401 kts | 210° |
| 2026-04-29 04:01 | 18.05786 | 109.17357 | 14934 ft | 396 kts | 192° |
| 2026-04-29 04:01 | 18.03101 | 109.16921 | 15490 ft | 389 kts | 179° |
| 2026-04-29 04:02 | 18.00392 | 109.16843 | 15801 ft | 394 kts | 178° |
| 2026-04-29 04:02 | 17.97661 | 109.16746 | 16255 ft | 395 kts | 178° |
| 2026-04-29 04:02 | 17.94914 | 109.16626 | 16623 ft | 399 kts | 178° |
| 2026-04-29 04:02 | 17.92154 | 109.16518 | 17010 ft | 401 kts | 178° |
| 2026-04-29 04:03 | 17.89365 | 109.16444 | 17388 ft | 403 kts | 176° |
| 2026-04-29 04:03 | 17.86571 | 109.16455 | 17744 ft | 405 kts | 176° |
| 2026-04-29 04:03 | 17.83751 | 109.16477 | 18105 ft | 407 kts | 176° |
| 2026-04-29 04:03 | 17.80896 | 109.16483 | 18446 ft | 410 kts | 176° |
| 2026-04-29 04:04 | 17.78040 | 109.16386 | 18765 ft | 415 kts | 183° |
| 2026-04-29 04:04 | 17.75239 | 109.15763 | 19074 ft | 422 kts | 196° |
| 2026-04-29 04:04 | 17.72588 | 109.14427 | 19399 ft | 429 kts | 211° |
| 2026-04-29 04:04 | 17.70287 | 109.12399 | 19720 ft | 435 kts | 225° |
| 2026-04-29 04:05 | 17.68442 | 109.09882 | 20014 ft | 440 kts | 238° |
| 2026-04-29 04:05 | 17.67241 | 109.06924 | 20233 ft | 445 kts | 256° |
| 2026-04-29 04:05 | 17.66869 | 109.03726 | 20620 ft | 444 kts | 269° |
| 2026-04-29 04:05 | 17.66826 | 109.00495 | 20805 ft | 449 kts | 270° |
| 2026-04-29 04:06 | 17.66769 | 108.97187 | 21124 ft | 450 kts | 269° |
| 2026-04-29 04:06 | 17.66689 | 108.93938 | 21392 ft | 452 kts | 269° |
| 2026-04-29 04:06 | 17.66615 | 108.90643 | 21633 ft | 454 kts | 269° |
| 2026-04-29 04:06 | 17.66549 | 108.87312 | 21949 ft | 455 kts | 269° |
| 2026-04-29 04:07 | 17.66487 | 108.84018 | 22189 ft | 457 kts | 269° |
| 2026-04-29 04:07 | 17.66425 | 108.80660 | 22455 ft | 458 kts | 269° |
| 2026-04-29 04:07 | 17.66364 | 108.77357 | 22702 ft | 459 kts | 269° |
| 2026-04-29 04:07 | 17.66305 | 108.74019 | 22944 ft | 461 kts | 270° |
| 2026-04-29 04:08 | 17.66422 | 108.70636 | 23168 ft | 462 kts | 277° |
| 2026-04-29 04:08 | 17.66968 | 108.67325 | 23393 ft | 462 kts | 287° |
| 2026-04-29 04:08 | 17.68097 | 108.64218 | 23617 ft | 460 kts | 299° |
| 2026-04-29 04:08 | 17.69702 | 108.61339 | 23893 ft | 458 kts | 306° |
| 2026-04-29 04:09 | 17.71629 | 108.58686 | 24023 ft | 459 kts | 314° |
| 2026-04-29 04:09 | 17.73760 | 108.56232 | 24283 ft | 458 kts | 315° |
| 2026-04-29 04:09 | 17.75908 | 108.53765 | 24481 ft | 460 kts | 314° |
| 2026-04-29 04:09 | 17.78049 | 108.51251 | 24674 ft | 461 kts | 314° |
| 2026-04-29 04:10 | 17.80159 | 108.48766 | 24885 ft | 462 kts | 314° |
| 2026-04-29 04:10 | 17.82318 | 108.46236 | 25071 ft | 463 kts | 314° |
| 2026-04-29 04:10 | 17.84463 | 108.43725 | 25265 ft | 464 kts | 314° |
| 2026-04-29 04:10 | 17.86606 | 108.41214 | 25446 ft | 465 kts | 314° |
| 2026-04-29 04:11 | 17.88751 | 108.38700 | 25630 ft | 466 kts | 314° |
| 2026-04-29 04:11 | 17.90934 | 108.36143 | 25803 ft | 467 kts | 314° |
| 2026-04-29 04:11 | 17.93101 | 108.33602 | 25969 ft | 468 kts | 314° |
| 2026-04-29 04:11 | 17.95252 | 108.31081 | 26125 ft | 469 kts | 314° |
| 2026-04-29 04:12 | 17.97425 | 108.28534 | 26281 ft | 470 kts | 314° |
| 2026-04-29 04:12 | 17.99608 | 108.25974 | 26431 ft | 471 kts | 314° |
| 2026-04-29 04:12 | 18.01769 | 108.23438 | 26580 ft | 472 kts | 314° |
| 2026-04-29 04:12 | 18.03939 | 108.20863 | 26720 ft | 473 kts | 312° |
| 2026-04-29 04:13 | 18.05960 | 108.18112 | 26846 ft | 476 kts | 306° |
| 2026-04-29 04:13 | 18.07714 | 108.15183 | 27001 ft | 477 kts | 302° |
| 2026-04-29 04:13 | 18.09409 | 108.12176 | 27138 ft | 478 kts | 303° |
| 2026-04-29 04:13 | 18.11112 | 108.09196 | 27254 ft | 479 kts | 303° |
| 2026-04-29 04:14 | 18.12834 | 108.06197 | 27393 ft | 479 kts | 303° |
| 2026-04-29 04:14 | 18.14542 | 108.03200 | 27514 ft | 480 kts | 303° |
| 2026-04-29 04:14 | 18.16247 | 108.00185 | 27613 ft | 482 kts | 302° |
| 2026-04-29 04:14 | 18.17951 | 107.97159 | 27773 ft | 481 kts | 302° |
| 2026-04-29 04:15 | 18.19660 | 107.94120 | 27914 ft | 482 kts | 302° |
| 2026-04-29 04:15 | 18.21349 | 107.91111 | 28027 ft | 482 kts | 302° |
| 2026-04-29 04:15 | 18.23048 | 107.88080 | 28147 ft | 483 kts | 302° |
| 2026-04-29 04:15 | 18.24739 | 107.85058 | 28257 ft | 483 kts | 302° |
| 2026-04-29 04:16 | 18.26457 | 107.81986 | 28364 ft | 484 kts | 302° |
| 2026-04-29 04:16 | 18.28140 | 107.78973 | 28486 ft | 484 kts | 302° |
| 2026-04-29 04:16 | 18.29838 | 107.75929 | 28713 ft | 482 kts | 302° |
| 2026-04-29 04:16 | 18.31527 | 107.72877 | 28875 ft | 481 kts | 301° |
| 2026-04-29 04:17 | 18.33041 | 107.69753 | 29013 ft | 482 kts | 296° |
| 2026-04-29 04:17 | 18.34282 | 107.66496 | 29178 ft | 483 kts | 289° |
| 2026-04-29 04:17 | 18.35132 | 107.63081 | 29317 ft | 483 kts | 283° |
| 2026-04-29 04:17 | 18.35795 | 107.59627 | 29503 ft | 482 kts | 283° |
| 2026-04-29 04:18 | 18.36476 | 107.56178 | 29615 ft | 482 kts | 283° |
| 2026-04-29 04:18 | 18.37188 | 107.52731 | 29744 ft | 482 kts | 283° |
| 2026-04-29 04:18 | 18.37894 | 107.49287 | 29897 ft | 481 kts | 283° |
| 2026-04-29 04:18 | 18.38583 | 107.45867 | 30030 ft | 481 kts | 283° |
| 2026-04-29 04:19 | 18.39269 | 107.42436 | 30167 ft | 481 kts | 283° |
| 2026-04-29 04:19 | 18.39956 | 107.38995 | 30305 ft | 480 kts | 283° |
| 2026-04-29 04:19 | 18.40645 | 107.35536 | 30437 ft | 480 kts | 283° |
| 2026-04-29 04:19 | 18.41325 | 107.32115 | 30561 ft | 480 kts | 283° |
| 2026-04-29 04:20 | 18.42003 | 107.28691 | 30680 ft | 479 kts | 283° |
| 2026-04-29 04:20 | 18.42685 | 107.25247 | 30804 ft | 479 kts | 283° |
| 2026-04-29 04:20 | 18.43358 | 107.21842 | 30925 ft | 479 kts | 283° |
| 2026-04-29 04:20 | 18.44037 | 107.18398 | 31045 ft | 478 kts | 283° |
| 2026-04-29 04:21 | 18.44704 | 107.15011 | 31163 ft | 478 kts | 283° |
| 2026-04-29 04:21 | 18.45383 | 107.11561 | 31280 ft | 477 kts | 283° |
| 2026-04-29 04:21 | 18.46054 | 107.08150 | 31395 ft | 477 kts | 283° |
| 2026-04-29 04:21 | 18.46722 | 107.04748 | 31508 ft | 477 kts | 283° |
| 2026-04-29 04:22 | 18.48057 | 106.97927 | 31633 ft | 478 kts | 283° |
| 2026-04-29 04:22 | 18.49395 | 106.91079 | 31733 ft | 481 kts | 283° |
| 2026-04-29 04:23 | 18.50743 | 106.84164 | 31833 ft | 484 kts | 283° |
| 2026-04-29 04:23 | 18.52090 | 106.77237 | 31934 ft | 486 kts | 283° |
| 2026-04-29 04:24 | 18.53446 | 106.70252 | 32056 ft | 488 kts | 283° |
| 2026-04-29 04:24 | 18.54802 | 106.63249 | 32246 ft | 489 kts | 283° |
| 2026-04-29 04:25 | 18.56163 | 106.56219 | 32445 ft | 488 kts | 283° |
| 2026-04-29 04:25 | 18.56840 | 106.52770 | 32551 ft | 488 kts | 283° |
| 2026-04-29 04:25 | 18.57531 | 106.49257 | 32660 ft | 488 kts | 283° |
| 2026-04-29 04:26 | 18.58216 | 106.45763 | 32766 ft | 487 kts | 283° |
| 2026-04-29 04:26 | 18.58896 | 106.42292 | 32872 ft | 487 kts | 283° |
| 2026-04-29 04:26 | 18.59575 | 106.38816 | 32977 ft | 486 kts | 283° |
| 2026-04-29 04:26 | 18.60259 | 106.35314 | 33081 ft | 486 kts | 283° |
| 2026-04-29 04:27 | 18.61613 | 106.28369 | 33252 ft | 486 kts | 283° |
| 2026-04-29 04:27 | 18.62968 | 106.21402 | 33420 ft | 485 kts | 283° |
| 2026-04-29 04:28 | 18.64318 | 106.14446 | 33582 ft | 485 kts | 283° |
| 2026-04-29 04:28 | 18.65656 | 106.07536 | 33738 ft | 484 kts | 283° |
| 2026-04-29 04:29 | 18.66990 | 106.00564 | 33896 ft | 484 kts | 282° |
| 2026-04-29 04:29 | 18.68313 | 105.93639 | 34049 ft | 483 kts | 282° |
| 2026-04-29 04:30 | 18.69629 | 105.86743 | 34194 ft | 483 kts | 282° |
| 2026-04-29 04:30 | 18.70947 | 105.79820 | 34339 ft | 482 kts | 282° |
| 2026-04-29 04:31 | 18.71607 | 105.76347 | 34411 ft | 482 kts | 282° |
| 2026-04-29 04:31 | 18.72936 | 105.69413 | 34551 ft | 482 kts | 283° |
| 2026-04-29 04:32 | 18.74857 | 105.62695 | 34684 ft | 479 kts | 292° |
| 2026-04-29 04:32 | 18.77147 | 105.56136 | 34814 ft | 479 kts | 291° |
| 2026-04-29 04:33 | 18.79393 | 105.49506 | 34950 ft | 479 kts | 291° |
| 2026-04-29 04:33 | 18.81640 | 105.42935 | 35080 ft | 479 kts | 292° |
| 2026-04-29 04:34 | 18.83890 | 105.36356 | 35208 ft | 478 kts | 292° |
| 2026-04-29 04:34 | 18.86143 | 105.29766 | 35316 ft | 478 kts | 291° |
| 2026-04-29 04:35 | 18.88400 | 105.23161 | 35420 ft | 478 kts | 291° |
| 2026-04-29 04:35 | 18.90632 | 105.16622 | 35602 ft | 475 kts | 291° |
| 2026-04-29 04:36 | 18.92869 | 105.10061 | 35789 ft | 472 kts | 290° |
| 2026-04-29 04:36 | 18.93977 | 105.06809 | 35919 ft | 470 kts | 290° |
| 2026-04-29 04:36 | 18.95078 | 105.03575 | 35935 ft | 471 kts | 290° |
| 2026-04-29 04:37 | 18.97279 | 104.97102 | 35939 ft | 467 kts | 289° |
| 2026-04-29 04:37 | 18.99448 | 104.90718 | 35939 ft | 462 kts | 289° |
| 2026-04-29 04:38 | 19.01597 | 104.84383 | 35939 ft | 459 kts | 289° |
| 2026-04-29 04:38 | 19.03746 | 104.78039 | 35939 ft | 459 kts | 289° |
| 2026-04-29 04:39 | 19.05891 | 104.71700 | 35939 ft | 458 kts | 289° |
| 2026-04-29 04:39 | 19.08021 | 104.65396 | 35939 ft | 458 kts | 289° |
| 2026-04-29 04:40 | 19.10160 | 104.59058 | 35939 ft | 459 kts | 289° |
| 2026-04-29 04:40 | 19.12295 | 104.52727 | 35939 ft | 459 kts | 289° |
| 2026-04-29 04:41 | 19.14427 | 104.46395 | 35939 ft | 459 kts | 289° |
| 2026-04-29 04:41 | 19.16565 | 104.40039 | 35939 ft | 459 kts | 289° |
| 2026-04-29 04:42 | 19.18696 | 104.33693 | 35939 ft | 459 kts | 289° |
| 2026-04-29 04:42 | 19.20820 | 104.27361 | 35939 ft | 459 kts | 289° |
| 2026-04-29 04:43 | 19.22952 | 104.20995 | 35939 ft | 459 kts | 289° |
| 2026-04-29 04:43 | 19.25060 | 104.14693 | 35939 ft | 459 kts | 289° |
| 2026-04-29 04:44 | 19.27182 | 104.08342 | 35942 ft | 459 kts | 289° |
| 2026-04-29 04:44 | 19.29300 | 104.01995 | 35947 ft | 458 kts | 289° |
| 2026-04-29 04:45 | 19.31417 | 103.95641 | 35954 ft | 458 kts | 289° |
| 2026-04-29 04:45 | 19.33520 | 103.89293 | 35961 ft | 458 kts | 288° |
| 2026-04-29 04:46 | 19.35586 | 103.82934 | 35965 ft | 458 kts | 288° |
| 2026-04-29 04:46 | 19.37668 | 103.76534 | 35966 ft | 458 kts | 288° |
| 2026-04-29 04:47 | 19.39726 | 103.70204 | 35966 ft | 458 kts | 288° |
| 2026-04-29 04:47 | 19.41802 | 103.63807 | 35966 ft | 458 kts | 288° |
| 2026-04-29 04:48 | 19.43898 | 103.57443 | 35966 ft | 458 kts | 289° |
| 2026-04-29 04:48 | 19.46070 | 103.51138 | 35966 ft | 459 kts | 289° |
| 2026-04-29 04:49 | 19.48232 | 103.44797 | 35966 ft | 459 kts | 289° |
| 2026-04-29 04:49 | 19.50387 | 103.38466 | 35966 ft | 459 kts | 289° |
| 2026-04-29 04:50 | 19.52541 | 103.32127 | 35966 ft | 458 kts | 289° |
| 2026-04-29 04:50 | 19.54702 | 103.25761 | 35966 ft | 458 kts | 289° |
| 2026-04-29 04:51 | 19.56846 | 103.19431 | 35966 ft | 458 kts | 289° |
| 2026-04-29 04:51 | 19.58996 | 103.13076 | 35966 ft | 460 kts | 289° |
| 2026-04-29 04:52 | 19.61160 | 103.06671 | 35966 ft | 462 kts | 289° |
| 2026-04-29 04:52 | 19.63331 | 103.00240 | 35966 ft | 465 kts | 290° |
| 2026-04-29 04:53 | 19.65498 | 102.93810 | 35966 ft | 467 kts | 290° |
| 2026-04-29 04:53 | 19.67679 | 102.87329 | 35966 ft | 468 kts | 290° |
| 2026-04-29 04:54 | 19.69852 | 102.80862 | 35965 ft | 466 kts | 290° |
| 2026-04-29 04:54 | 19.72022 | 102.74396 | 35966 ft | 465 kts | 290° |
| 2026-04-29 04:55 | 19.74175 | 102.67973 | 35966 ft | 466 kts | 290° |
| 2026-04-29 04:55 | 19.76348 | 102.61481 | 35966 ft | 466 kts | 290° |
| 2026-04-29 04:56 | 19.78511 | 102.55012 | 35966 ft | 466 kts | 290° |
| 2026-04-29 04:56 | 19.80674 | 102.48533 | 35966 ft | 466 kts | 290° |
| 2026-04-29 04:57 | 19.82827 | 102.42073 | 35966 ft | 466 kts | 290° |
| 2026-04-29 04:57 | 19.84967 | 102.35645 | 35966 ft | 466 kts | 290° |
| 2026-04-29 04:58 | 19.87124 | 102.29160 | 35966 ft | 466 kts | 290° |
| 2026-04-29 04:58 | 19.89285 | 102.22653 | 35966 ft | 466 kts | 290° |
| 2026-04-29 04:59 | 19.91732 | 102.16344 | 35967 ft | 465 kts | 299° |
| 2026-04-29 04:59 | 19.94903 | 102.10382 | 35966 ft | 465 kts | 300° |
| 2026-04-29 05:00 | 19.98057 | 102.04398 | 35966 ft | 465 kts | 300° |
| 2026-04-29 05:00 | 20.01231 | 101.98431 | 35966 ft | 465 kts | 300° |
| 2026-04-29 05:01 | 20.04413 | 101.92476 | 35966 ft | 465 kts | 300° |
| 2026-04-29 05:01 | 20.07608 | 101.86501 | 35966 ft | 465 kts | 300° |
| 2026-04-29 05:02 | 20.10794 | 101.80547 | 35966 ft | 465 kts | 300° |
| 2026-04-29 05:02 | 20.13981 | 101.74590 | 35966 ft | 465 kts | 300° |
| 2026-04-29 05:03 | 20.17171 | 101.68623 | 35966 ft | 465 kts | 301° |
| 2026-04-29 05:03 | 20.20349 | 101.62672 | 35973 ft | 465 kts | 301° |
| 2026-04-29 05:04 | 20.23543 | 101.56687 | 35984 ft | 465 kts | 301° |
| 2026-04-29 05:04 | 20.26730 | 101.50709 | 36001 ft | 465 kts | 301° |
| 2026-04-29 05:05 | 20.29901 | 101.44754 | 36013 ft | 465 kts | 301° |
| 2026-04-29 05:05 | 20.33083 | 101.38774 | 36020 ft | 465 kts | 301° |
| 2026-04-29 05:06 | 20.36263 | 101.32792 | 36020 ft | 465 kts | 300° |
| 2026-04-29 05:06 | 20.39442 | 101.26803 | 36020 ft | 465 kts | 300° |
| 2026-04-29 05:07 | 20.42601 | 101.20847 | 36020 ft | 465 kts | 300° |
| 2026-04-29 05:07 | 20.45780 | 101.14848 | 36020 ft | 465 kts | 300° |
| 2026-04-29 05:08 | 20.48947 | 101.08863 | 36020 ft | 465 kts | 300° |
| 2026-04-29 05:08 | 20.52100 | 101.02901 | 36020 ft | 465 kts | 300° |
| 2026-04-29 05:09 | 20.55274 | 100.96890 | 36019 ft | 463 kts | 300° |
| 2026-04-29 05:09 | 20.58422 | 100.90924 | 36020 ft | 460 kts | 299° |
| 2026-04-29 05:10 | 20.61533 | 100.85020 | 36020 ft | 457 kts | 299° |
| 2026-04-29 05:10 | 20.64626 | 100.79145 | 36020 ft | 453 kts | 299° |
| 2026-04-29 05:11 | 20.67698 | 100.73303 | 36020 ft | 453 kts | 299° |
| 2026-04-29 05:11 | 20.70773 | 100.67451 | 36017 ft | 454 kts | 299° |
| 2026-04-29 05:12 | 20.73840 | 100.61607 | 35992 ft | 454 kts | 299° |
| 2026-04-29 05:12 | 20.76920 | 100.55731 | 35993 ft | 454 kts | 299° |
| 2026-04-29 05:13 | 20.79981 | 100.49851 | 35992 ft | 454 kts | 297° |
| 2026-04-29 05:13 | 20.82365 | 100.43623 | 35994 ft | 453 kts | 286° |
| 2026-04-29 05:14 | 20.84105 | 100.37191 | 35993 ft | 454 kts | 287° |
| 2026-04-29 05:14 | 20.85935 | 100.30727 | 35993 ft | 453 kts | 286° |
| 2026-04-29 05:15 | 20.87708 | 100.24291 | 35993 ft | 453 kts | 286° |
| 2026-04-29 05:15 | 20.89474 | 100.17829 | 35993 ft | 453 kts | 285° |
| 2026-04-29 05:16 | 20.91225 | 100.11390 | 35993 ft | 453 kts | 285° |
| 2026-04-29 05:16 | 20.92978 | 100.04913 | 35993 ft | 453 kts | 285° |
| 2026-04-29 05:17 | 20.94721 | 99.98453 | 35993 ft | 453 kts | 285° |
| 2026-04-29 05:17 | 20.96459 | 99.91997 | 35993 ft | 453 kts | 285° |
| 2026-04-29 05:18 | 20.98203 | 99.85507 | 35993 ft | 454 kts | 285° |
| 2026-04-29 05:18 | 20.99927 | 99.79076 | 35993 ft | 454 kts | 285° |
| 2026-04-29 05:19 | 21.01675 | 99.72549 | 35993 ft | 454 kts | 285° |
| 2026-04-29 05:19 | 21.03401 | 99.66087 | 35993 ft | 454 kts | 285° |
| 2026-04-29 05:20 | 21.05127 | 99.59619 | 35992 ft | 453 kts | 284° |
| 2026-04-29 05:20 | 21.06841 | 99.53181 | 35993 ft | 452 kts | 284° |
| 2026-04-29 05:21 | 21.08562 | 99.46709 | 35993 ft | 450 kts | 284° |
| 2026-04-29 05:21 | 21.10266 | 99.40289 | 35993 ft | 448 kts | 284° |
| 2026-04-29 05:22 | 21.11952 | 99.33931 | 35993 ft | 446 kts | 283° |
| 2026-04-29 05:22 | 21.13644 | 99.27536 | 35993 ft | 445 kts | 283° |
| 2026-04-29 05:23 | 21.15328 | 99.21160 | 35993 ft | 446 kts | 283° |
| 2026-04-29 05:23 | 21.17005 | 99.14801 | 35993 ft | 446 kts | 283° |
| 2026-04-29 05:24 | 21.18688 | 99.08409 | 35993 ft | 446 kts | 283° |
| 2026-04-29 05:24 | 21.20359 | 99.02052 | 35993 ft | 446 kts | 284° |
| 2026-04-29 05:25 | 21.22044 | 98.95629 | 35993 ft | 447 kts | 284° |
| 2026-04-29 05:25 | 21.23713 | 98.89259 | 35993 ft | 447 kts | 284° |
| 2026-04-29 05:26 | 21.25391 | 98.82845 | 35993 ft | 448 kts | 285° |
| 2026-04-29 05:26 | 21.27062 | 98.76445 | 35993 ft | 447 kts | 285° |
| 2026-04-29 05:27 | 21.28739 | 98.70010 | 35993 ft | 447 kts | 285° |
| 2026-04-29 05:27 | 21.31240 | 98.60397 | 35993 ft | 447 kts | 285° |
| 2026-04-29 05:28 | 21.32904 | 98.53986 | 35993 ft | 447 kts | 285° |
| 2026-04-29 05:28 | 21.34562 | 98.47590 | 35993 ft | 447 kts | 285° |
| 2026-04-29 05:29 | 21.36219 | 98.41184 | 35993 ft | 447 kts | 285° |
| 2026-04-29 05:29 | 21.37874 | 98.34776 | 35988 ft | 447 kts | 284° |
| 2026-04-29 05:30 | 21.39531 | 98.28348 | 35981 ft | 447 kts | 284° |
| 2026-04-29 05:30 | 21.41189 | 98.21909 | 35973 ft | 447 kts | 284° |
| 2026-04-29 05:31 | 21.42830 | 98.15520 | 35966 ft | 447 kts | 284° |
| 2026-04-29 05:31 | 21.44483 | 98.09077 | 35966 ft | 447 kts | 284° |
| 2026-04-29 05:32 | 21.46127 | 98.02655 | 35966 ft | 447 kts | 284° |
| 2026-04-29 05:32 | 21.47767 | 97.96242 | 35966 ft | 447 kts | 284° |
| 2026-04-29 05:33 | 21.49411 | 97.89799 | 35966 ft | 447 kts | 284° |
| 2026-04-29 05:33 | 21.51041 | 97.83401 | 35966 ft | 447 kts | 284° |
| 2026-04-29 05:34 | 21.52676 | 97.76973 | 35966 ft | 447 kts | 284° |
| 2026-04-29 05:34 | 21.54317 | 97.70508 | 35966 ft | 447 kts | 284° |
| 2026-04-29 05:35 | 21.55938 | 97.64111 | 35966 ft | 447 kts | 284° |
| 2026-04-29 05:35 | 21.57567 | 97.57674 | 35966 ft | 447 kts | 284° |
| 2026-04-29 05:36 | 21.59189 | 97.51251 | 35966 ft | 447 kts | 284° |
| 2026-04-29 05:36 | 21.60811 | 97.44817 | 35966 ft | 447 kts | 284° |
| 2026-04-29 05:37 | 21.62441 | 97.38342 | 35966 ft | 447 kts | 284° |
| 2026-04-29 05:37 | 21.64053 | 97.31925 | 35966 ft | 447 kts | 284° |
| 2026-04-29 05:38 | 21.65671 | 97.25475 | 35966 ft | 447 kts | 284° |
| 2026-04-29 05:38 | 21.67285 | 97.19030 | 35966 ft | 447 kts | 284° |
| 2026-04-29 05:39 | 21.68894 | 97.12591 | 35966 ft | 447 kts | 284° |
| 2026-04-29 05:39 | 21.70496 | 97.06171 | 35966 ft | 446 kts | 283° |
| 2026-04-29 05:40 | 21.72094 | 96.99756 | 35966 ft | 444 kts | 283° |
| 2026-04-29 05:40 | 21.73684 | 96.93357 | 35966 ft | 443 kts | 283° |
| 2026-04-29 05:41 | 21.75270 | 96.86968 | 35966 ft | 443 kts | 283° |
| 2026-04-29 05:41 | 21.76849 | 96.80592 | 35966 ft | 443 kts | 283° |
| 2026-04-29 05:42 | 21.77644 | 96.77377 | 35855 ft | 445 kts | 283° |
| 2026-04-29 05:42 | 21.78433 | 96.74184 | 35859 ft | 444 kts | 283° |
| 2026-04-29 05:42 | 21.80010 | 96.67796 | 35858 ft | 443 kts | 283° |
| 2026-04-29 05:43 | 21.81578 | 96.61433 | 35858 ft | 444 kts | 283° |
| 2026-04-29 05:43 | 21.83158 | 96.55010 | 35858 ft | 444 kts | 283° |
| 2026-04-29 05:44 | 21.84727 | 96.48618 | 35858 ft | 444 kts | 283° |
| 2026-04-29 05:44 | 21.86303 | 96.42187 | 35858 ft | 444 kts | 283° |
| 2026-04-29 05:45 | 21.87864 | 96.35809 | 35858 ft | 444 kts | 283° |
| 2026-04-29 05:45 | 21.89435 | 96.29375 | 35858 ft | 444 kts | 283° |
| 2026-04-29 05:46 | 21.91001 | 96.22953 | 35858 ft | 444 kts | 283° |
| 2026-04-29 05:46 | 21.92559 | 96.16549 | 35858 ft | 443 kts | 282° |
| 2026-04-29 05:47 | 21.93626 | 96.10075 | 35859 ft | 441 kts | 273° |
| 2026-04-29 05:47 | 21.94178 | 96.03521 | 35858 ft | 441 kts | 274° |
| 2026-04-29 05:48 | 21.94795 | 95.96955 | 35858 ft | 441 kts | 274° |
| 2026-04-29 05:48 | 21.95380 | 95.90371 | 35858 ft | 441 kts | 274° |
| 2026-04-29 05:49 | 21.95956 | 95.83808 | 35858 ft | 441 kts | 274° |
| 2026-04-29 05:49 | 21.96526 | 95.77234 | 35858 ft | 441 kts | 274° |
| 2026-04-29 05:50 | 21.97091 | 95.70659 | 35858 ft | 441 kts | 274° |
| 2026-04-29 05:50 | 21.97651 | 95.64096 | 35858 ft | 441 kts | 274° |
| 2026-04-29 05:51 | 21.98205 | 95.57568 | 35858 ft | 441 kts | 274° |
| 2026-04-29 05:51 | 21.98761 | 95.50980 | 35858 ft | 441 kts | 274° |
| 2026-04-29 05:52 | 21.99311 | 95.44426 | 35858 ft | 441 kts | 274° |
| 2026-04-29 05:52 | 21.99862 | 95.37832 | 35858 ft | 441 kts | 274° |
| 2026-04-29 05:53 | 22.00405 | 95.31300 | 35858 ft | 441 kts | 273° |
| 2026-04-29 05:53 | 22.00950 | 95.24721 | 35858 ft | 441 kts | 273° |
| 2026-04-29 05:54 | 22.01492 | 95.18142 | 35858 ft | 441 kts | 273° |
| 2026-04-29 05:54 | 22.02029 | 95.11581 | 35858 ft | 441 kts | 273° |
| 2026-04-29 05:55 | 22.02566 | 95.04988 | 35858 ft | 441 kts | 273° |
| 2026-04-29 05:55 | 22.03097 | 94.98440 | 35858 ft | 441 kts | 273° |
| 2026-04-29 05:56 | 22.03630 | 94.91840 | 35858 ft | 442 kts | 273° |
| 2026-04-29 05:56 | 22.04158 | 94.85263 | 35858 ft | 443 kts | 273° |
| 2026-04-29 05:57 | 22.04686 | 94.78648 | 35858 ft | 444 kts | 273° |
| 2026-04-29 05:57 | 22.05210 | 94.72053 | 35858 ft | 444 kts | 273° |
| 2026-04-29 05:58 | 22.05732 | 94.65448 | 35858 ft | 443 kts | 273° |
| 2026-04-29 05:58 | 22.06251 | 94.58860 | 35858 ft | 443 kts | 273° |
| 2026-04-29 05:59 | 22.06770 | 94.52216 | 35858 ft | 443 kts | 273° |
| 2026-04-29 05:59 | 22.07282 | 94.45643 | 35858 ft | 443 kts | 273° |
| 2026-04-29 06:00 | 22.07792 | 94.39048 | 35858 ft | 443 kts | 273° |
| 2026-04-29 06:00 | 22.08304 | 94.32407 | 35858 ft | 443 kts | 272° |
| 2026-04-29 06:01 | 22.08810 | 94.25809 | 35858 ft | 443 kts | 272° |
| 2026-04-29 06:01 | 22.09312 | 94.19228 | 35858 ft | 443 kts | 272° |
| 2026-04-29 06:02 | 22.09813 | 94.12624 | 35858 ft | 443 kts | 272° |
| 2026-04-29 06:02 | 22.10314 | 94.05975 | 35859 ft | 443 kts | 272° |
| 2026-04-29 06:03 | 22.10807 | 93.99399 | 35871 ft | 443 kts | 272° |
| 2026-04-29 06:03 | 22.11302 | 93.92763 | 35883 ft | 443 kts | 272° |
| 2026-04-29 06:04 | 22.11793 | 93.86142 | 35898 ft | 443 kts | 272° |
| 2026-04-29 06:04 | 22.12279 | 93.79562 | 35903 ft | 443 kts | 272° |
| 2026-04-29 06:05 | 22.12764 | 93.72958 | 35898 ft | 443 kts | 272° |
| 2026-04-29 06:05 | 22.13244 | 93.66367 | 35893 ft | 443 kts | 272° |
| 2026-04-29 06:06 | 22.13727 | 93.59723 | 35886 ft | 443 kts | 272° |
| 2026-04-29 06:06 | 22.14203 | 93.53119 | 35885 ft | 443 kts | 272° |
| 2026-04-29 06:07 | 22.14675 | 93.46542 | 35885 ft | 443 kts | 272° |
| 2026-04-29 06:07 | 22.15147 | 93.39920 | 35885 ft | 443 kts | 272° |
| 2026-04-29 06:08 | 22.15616 | 93.33315 | 35885 ft | 443 kts | 272° |
| 2026-04-29 06:08 | 22.16082 | 93.26698 | 35885 ft | 443 kts | 272° |
| 2026-04-29 06:09 | 22.16546 | 93.20084 | 35885 ft | 443 kts | 272° |
| 2026-04-29 06:09 | 22.17006 | 93.13473 | 35885 ft | 443 kts | 272° |
| 2026-04-29 06:10 | 22.17464 | 93.06871 | 35884 ft | 442 kts | 272° |
| 2026-04-29 06:10 | 22.17920 | 93.00257 | 35885 ft | 441 kts | 272° |
| 2026-04-29 06:11 | 22.18368 | 92.93720 | 35885 ft | 439 kts | 272° |
| 2026-04-29 06:11 | 22.18813 | 92.87176 | 35885 ft | 437 kts | 272° |
| 2026-04-29 06:12 | 22.19254 | 92.80650 | 35951 ft | 435 kts | 272° |
| 2026-04-29 06:12 | 22.19691 | 92.74153 | 35993 ft | 438 kts | 272° |
| 2026-04-29 06:13 | 22.20129 | 92.67598 | 35993 ft | 438 kts | 272° |
| 2026-04-29 06:13 | 22.20554 | 92.61062 | 35993 ft | 437 kts | 271° |
| 2026-04-29 06:14 | 22.20947 | 92.54546 | 35993 ft | 437 kts | 271° |
| 2026-04-29 06:14 | 22.21345 | 92.48013 | 35993 ft | 437 kts | 271° |
| 2026-04-29 06:15 | 22.21739 | 92.41483 | 35993 ft | 437 kts | 271° |
| 2026-04-29 06:15 | 22.22133 | 92.34923 | 35993 ft | 437 kts | 271° |
| 2026-04-29 06:16 | 22.22521 | 92.28426 | 35993 ft | 437 kts | 271° |
| 2026-04-29 06:16 | 22.22964 | 92.21864 | 35993 ft | 437 kts | 272° |
| 2026-04-29 06:17 | 22.23450 | 92.15370 | 35993 ft | 437 kts | 272° |
| 2026-04-29 06:17 | 22.23921 | 92.08830 | 35993 ft | 437 kts | 272° |
| 2026-04-29 06:18 | 22.24389 | 92.02310 | 35993 ft | 437 kts | 272° |
| 2026-04-29 06:18 | 22.24856 | 91.95768 | 35993 ft | 437 kts | 272° |
| 2026-04-29 06:19 | 22.25428 | 91.89243 | 35982 ft | 439 kts | 278° |
| 2026-04-29 06:19 | 22.27425 | 91.83054 | 35957 ft | 446 kts | 298° |
| 2026-04-29 06:20 | 22.31303 | 91.77801 | 35932 ft | 452 kts | 315° |
| 2026-04-29 06:20 | 22.36149 | 91.73482 | 35912 ft | 454 kts | 318° |
| 2026-04-29 06:21 | 22.40973 | 91.69116 | 35892 ft | 453 kts | 317° |
| 2026-04-29 06:21 | 22.45786 | 91.64761 | 35884 ft | 453 kts | 317° |
| 2026-04-29 06:22 | 22.50607 | 91.60408 | 35885 ft | 453 kts | 317° |
| 2026-04-29 06:22 | 22.55427 | 91.56052 | 35885 ft | 453 kts | 317° |
| 2026-04-29 06:23 | 22.60230 | 91.51710 | 35885 ft | 453 kts | 317° |
| 2026-04-29 06:23 | 22.65063 | 91.47332 | 35885 ft | 453 kts | 317° |
| 2026-04-29 06:24 | 22.69875 | 91.42970 | 35885 ft | 453 kts | 317° |
| 2026-04-29 06:24 | 22.74696 | 91.38596 | 35885 ft | 453 kts | 317° |
| 2026-04-29 06:25 | 22.79522 | 91.34214 | 35885 ft | 453 kts | 317° |
| 2026-04-29 06:25 | 22.84326 | 91.29848 | 35885 ft | 453 kts | 317° |
| 2026-04-29 06:26 | 22.89125 | 91.25484 | 35885 ft | 453 kts | 317° |
| 2026-04-29 06:26 | 22.93934 | 91.21107 | 35885 ft | 453 kts | 317° |
| 2026-04-29 06:27 | 22.98725 | 91.16740 | 35885 ft | 451 kts | 317° |
| 2026-04-29 06:27 | 23.03539 | 91.12350 | 35885 ft | 449 kts | 317° |
| 2026-04-29 06:28 | 23.08273 | 91.08028 | 35885 ft | 447 kts | 317° |
| 2026-04-29 06:28 | 23.13012 | 91.03696 | 35885 ft | 445 kts | 317° |
| 2026-04-29 06:29 | 23.17709 | 90.99400 | 35885 ft | 444 kts | 317° |
| 2026-04-29 06:29 | 23.22448 | 90.95132 | 35885 ft | 443 kts | 318° |
| 2026-04-29 06:30 | 23.29569 | 90.88772 | 35885 ft | 443 kts | 318° |
| 2026-04-29 06:31 | 23.34288 | 90.84543 | 35885 ft | 443 kts | 318° |
| 2026-04-29 06:31 | 23.39035 | 90.80293 | 35885 ft | 443 kts | 318° |
| 2026-04-29 06:32 | 23.43778 | 90.76045 | 35885 ft | 443 kts | 318° |
| 2026-04-29 06:32 | 23.48514 | 90.71796 | 35885 ft | 443 kts | 318° |
| 2026-04-29 06:33 | 23.53255 | 90.67542 | 35885 ft | 443 kts | 318° |
| 2026-04-29 06:33 | 23.57998 | 90.63286 | 35885 ft | 443 kts | 318° |
| 2026-04-29 06:34 | 23.62730 | 90.59035 | 35885 ft | 443 kts | 318° |
| 2026-04-29 06:34 | 23.67459 | 90.54781 | 35885 ft | 443 kts | 318° |
| 2026-04-29 06:35 | 23.72203 | 90.50510 | 35885 ft | 443 kts | 318° |
| 2026-04-29 06:35 | 23.76934 | 90.46247 | 35885 ft | 443 kts | 318° |
| 2026-04-29 06:36 | 23.81339 | 90.41634 | 35884 ft | 439 kts | 306° |
| 2026-04-29 06:36 | 23.83000 | 90.38854 | 35885 ft | 435 kts | 295° |
| 2026-04-29 06:36 | 23.84167 | 90.35867 | 35888 ft | 433 kts | 288° |
| 2026-04-29 06:37 | 23.86175 | 90.29651 | 35885 ft | 434 kts | 288° |
| 2026-04-29 06:37 | 23.88261 | 90.23486 | 35885 ft | 433 kts | 288° |
| 2026-04-29 06:38 | 23.90306 | 90.17310 | 35885 ft | 433 kts | 288° |
| 2026-04-29 06:38 | 23.92333 | 90.11166 | 35885 ft | 433 kts | 288° |
| 2026-04-29 06:39 | 23.94360 | 90.04995 | 35885 ft | 433 kts | 288° |
| 2026-04-29 06:39 | 23.96402 | 89.98764 | 35885 ft | 433 kts | 288° |
| 2026-04-29 06:40 | 23.98578 | 89.92649 | 35885 ft | 434 kts | 290° |
| 2026-04-29 06:40 | 24.00826 | 89.86564 | 35885 ft | 434 kts | 290° |
| 2026-04-29 06:41 | 24.03048 | 89.80455 | 35885 ft | 434 kts | 290° |
| 2026-04-29 06:41 | 24.05273 | 89.74335 | 35885 ft | 434 kts | 290° |
| 2026-04-29 06:42 | 24.07481 | 89.68246 | 35885 ft | 434 kts | 290° |
| 2026-04-29 06:42 | 24.09706 | 89.62101 | 35880 ft | 434 kts | 290° |
| 2026-04-29 06:43 | 24.11921 | 89.55971 | 35857 ft | 434 kts | 290° |
| 2026-04-29 06:43 | 24.14047 | 89.49810 | 35858 ft | 433 kts | 288° |
| 2026-04-29 06:44 | 24.16127 | 89.43683 | 35858 ft | 433 kts | 289° |
| 2026-04-29 06:44 | 24.18241 | 89.37485 | 35858 ft | 434 kts | 289° |
| 2026-04-29 06:45 | 24.20340 | 89.31322 | 35858 ft | 434 kts | 288° |
| 2026-04-29 06:45 | 24.22433 | 89.25166 | 35858 ft | 433 kts | 288° |
| 2026-04-29 06:46 | 24.24528 | 89.18996 | 35858 ft | 433 kts | 288° |
| 2026-04-29 06:46 | 24.26580 | 89.12946 | 35858 ft | 433 kts | 288° |
| 2026-04-29 06:47 | 24.28669 | 89.06779 | 35858 ft | 433 kts | 288° |
| 2026-04-29 06:47 | 24.30762 | 89.00589 | 35856 ft | 433 kts | 288° |
| 2026-04-29 06:48 | 24.32847 | 88.94416 | 35858 ft | 433 kts | 289° |
| 2026-04-29 06:48 | 24.34922 | 88.88261 | 35858 ft | 433 kts | 289° |
| 2026-04-29 06:49 | 24.37000 | 88.82087 | 35858 ft | 432 kts | 289° |
| 2026-04-29 06:49 | 24.39087 | 88.75879 | 35832 ft | 433 kts | 289° |
| 2026-04-29 06:50 | 24.41157 | 88.69710 | 35784 ft | 433 kts | 289° |
| 2026-04-29 06:50 | 24.43223 | 88.63544 | 35736 ft | 433 kts | 289° |
| 2026-04-29 06:51 | 24.45484 | 88.57458 | 35688 ft | 434 kts | 294° |
| 2026-04-29 06:51 | 24.48102 | 88.51473 | 35668 ft | 433 kts | 294° |
| 2026-04-29 06:52 | 24.50615 | 88.45509 | 35685 ft | 433 kts | 294° |
| 2026-04-29 06:52 | 24.53142 | 88.39518 | 35688 ft | 434 kts | 294° |
| 2026-04-29 06:53 | 24.55676 | 88.33488 | 35677 ft | 434 kts | 293° |
| 2026-04-29 06:53 | 24.58187 | 88.27499 | 35668 ft | 434 kts | 293° |
| 2026-04-29 06:54 | 24.60702 | 88.21487 | 35669 ft | 434 kts | 293° |
| 2026-04-29 06:54 | 24.63210 | 88.15483 | 35669 ft | 434 kts | 293° |
| 2026-04-29 06:55 | 24.65706 | 88.09497 | 35684 ft | 433 kts | 293° |
| 2026-04-29 06:55 | 24.68226 | 88.03449 | 35707 ft | 434 kts | 293° |
| 2026-04-29 06:56 | 24.70699 | 87.97462 | 35713 ft | 434 kts | 293° |
| 2026-04-29 06:56 | 24.73189 | 87.91400 | 35704 ft | 434 kts | 293° |
| 2026-04-29 06:57 | 24.75654 | 87.85401 | 35681 ft | 434 kts | 293° |
| 2026-04-29 06:57 | 24.78128 | 87.79374 | 35668 ft | 433 kts | 293° |
| 2026-04-29 06:58 | 24.80676 | 87.73368 | 35672 ft | 434 kts | 294° |
| 2026-04-29 06:58 | 24.83246 | 87.67354 | 35702 ft | 434 kts | 294° |
| 2026-04-29 06:59 | 24.85786 | 87.61375 | 35732 ft | 434 kts | 294° |
| 2026-04-29 06:59 | 24.88330 | 87.55383 | 35760 ft | 434 kts | 294° |
| 2026-04-29 07:00 | 24.90886 | 87.49352 | 35772 ft | 434 kts | 294° |
| 2026-04-29 07:00 | 24.93419 | 87.43366 | 35763 ft | 434 kts | 294° |
| 2026-04-29 07:01 | 24.95964 | 87.37343 | 35736 ft | 434 kts | 294° |
| 2026-04-29 07:01 | 24.98502 | 87.31331 | 35722 ft | 433 kts | 293° |
| 2026-04-29 07:02 | 25.01021 | 87.25353 | 35722 ft | 431 kts | 293° |
| 2026-04-29 07:02 | 25.03521 | 87.19415 | 35723 ft | 428 kts | 293° |
| 2026-04-29 07:03 | 25.06022 | 87.13464 | 35723 ft | 427 kts | 293° |
| 2026-04-29 07:03 | 25.08507 | 87.07542 | 35723 ft | 425 kts | 293° |
| 2026-04-29 07:04 | 25.10962 | 87.01685 | 35723 ft | 422 kts | 293° |
| 2026-04-29 07:04 | 25.13420 | 86.95813 | 35722 ft | 420 kts | 292° |
| 2026-04-29 07:05 | 25.15854 | 86.89990 | 35723 ft | 419 kts | 292° |
| 2026-04-29 07:05 | 25.18288 | 86.84158 | 35723 ft | 419 kts | 292° |
| 2026-04-29 07:06 | 25.20722 | 86.78319 | 35723 ft | 420 kts | 292° |
| 2026-04-29 07:06 | 25.23143 | 86.72504 | 35723 ft | 420 kts | 292° |
| 2026-04-29 07:07 | 25.25583 | 86.66636 | 35723 ft | 420 kts | 292° |
| 2026-04-29 07:07 | 25.28006 | 86.60801 | 35723 ft | 420 kts | 292° |
| 2026-04-29 07:08 | 25.30429 | 86.54958 | 35723 ft | 420 kts | 292° |
| 2026-04-29 07:08 | 25.32850 | 86.49117 | 35722 ft | 420 kts | 293° |
| 2026-04-29 07:09 | 25.35982 | 86.43678 | 35722 ft | 425 kts | 309° |
| 2026-04-29 07:09 | 25.40565 | 86.39500 | 35724 ft | 432 kts | 322° |
| 2026-04-29 07:10 | 25.45432 | 86.35671 | 35722 ft | 431 kts | 320° |
| 2026-04-29 07:10 | 25.50259 | 86.31795 | 35722 ft | 431 kts | 320° |
| 2026-04-29 07:11 | 25.55136 | 86.27918 | 35723 ft | 431 kts | 320° |
| 2026-04-29 07:11 | 25.59972 | 86.24070 | 35722 ft | 431 kts | 320° |
| 2026-04-29 07:12 | 25.64828 | 86.20177 | 35723 ft | 431 kts | 320° |
| 2026-04-29 07:12 | 25.69642 | 86.16317 | 35723 ft | 431 kts | 320° |
| 2026-04-29 07:13 | 25.74481 | 86.12436 | 35723 ft | 431 kts | 320° |
| 2026-04-29 07:13 | 25.79337 | 86.08538 | 35723 ft | 431 kts | 320° |
| 2026-04-29 07:14 | 25.84164 | 86.04659 | 35723 ft | 431 kts | 320° |
| 2026-04-29 07:14 | 25.89024 | 86.00751 | 35723 ft | 431 kts | 320° |
| 2026-04-29 07:15 | 25.93846 | 85.96869 | 35723 ft | 431 kts | 320° |
| 2026-04-29 07:15 | 25.98703 | 85.92956 | 35723 ft | 431 kts | 320° |
| 2026-04-29 07:16 | 26.03525 | 85.89066 | 35723 ft | 431 kts | 320° |
| 2026-04-29 07:16 | 26.08372 | 85.85152 | 35723 ft | 431 kts | 320° |
| 2026-04-29 07:17 | 26.13193 | 85.81255 | 35723 ft | 431 kts | 320° |
| 2026-04-29 07:17 | 26.18034 | 85.77339 | 35723 ft | 431 kts | 320° |
| 2026-04-29 07:18 | 26.22867 | 85.73425 | 35723 ft | 431 kts | 320° |
| 2026-04-29 07:18 | 26.27679 | 85.69524 | 35723 ft | 431 kts | 320° |
| 2026-04-29 07:19 | 26.32518 | 85.65595 | 35723 ft | 431 kts | 320° |
| 2026-04-29 07:19 | 26.37339 | 85.61694 | 35723 ft | 431 kts | 320° |
| 2026-04-29 07:20 | 26.42178 | 85.57784 | 35723 ft | 431 kts | 320° |
| 2026-04-29 07:20 | 26.47011 | 85.53871 | 35723 ft | 431 kts | 320° |
| 2026-04-29 07:21 | 26.51850 | 85.49949 | 35723 ft | 431 kts | 320° |
| 2026-04-29 07:21 | 26.56692 | 85.46021 | 35724 ft | 431 kts | 320° |
| 2026-04-29 07:22 | 26.61531 | 85.42091 | 35786 ft | 430 kts | 320° |
| 2026-04-29 07:22 | 26.66355 | 85.38168 | 35852 ft | 431 kts | 320° |
| 2026-04-29 07:23 | 26.71159 | 85.34257 | 35917 ft | 431 kts | 320° |
| 2026-04-29 07:23 | 26.76016 | 85.30307 | 35939 ft | 431 kts | 320° |
| 2026-04-29 07:24 | 26.80864 | 85.26452 | 35939 ft | 431 kts | 321° |
| 2026-04-29 07:24 | 26.85751 | 85.22595 | 35937 ft | 431 kts | 323° |
| 2026-04-29 07:25 | 26.91249 | 85.19812 | 35939 ft | 441 kts | 341° |
| 2026-04-29 07:25 | 26.97399 | 85.19247 | 35938 ft | 455 kts | 359° |
| 2026-04-29 07:25 | 27.00513 | 85.19814 | 35937 ft | 464 kts | 11° |
| 2026-04-29 07:26 | 27.03538 | 85.21143 | 35942 ft | 474 kts | 22° |
| 2026-04-29 07:26 | 27.09005 | 85.25410 | 35899 ft | 487 kts | 43° |
| 2026-04-29 07:26 | 27.11026 | 85.28445 | 35241 ft | 491 kts | 60° |
| 2026-04-29 07:27 | 27.12433 | 85.31918 | 34432 ft | 495 kts | 68° |
| 2026-04-29 07:27 | 27.13596 | 85.35574 | 33538 ft | 498 kts | 70° |
| 2026-04-29 07:27 | 27.14675 | 85.39262 | 32678 ft | 499 kts | 70° |
| 2026-04-29 07:27 | 27.15752 | 85.42892 | 32051 ft | 495 kts | 69° |
| 2026-04-29 07:28 | 27.16847 | 85.46546 | 31386 ft | 491 kts | 69° |
| 2026-04-29 07:28 | 27.17915 | 85.50141 | 30661 ft | 489 kts | 69° |
| 2026-04-29 07:28 | 27.18979 | 85.53764 | 29983 ft | 486 kts | 69° |
| 2026-04-29 07:28 | 27.20021 | 85.57340 | 29323 ft | 482 kts | 69° |
| 2026-04-29 07:29 | 27.21047 | 85.60866 | 28675 ft | 477 kts | 69° |
| 2026-04-29 07:29 | 27.22069 | 85.64386 | 28025 ft | 473 kts | 69° |
| 2026-04-29 07:29 | 27.23078 | 85.67868 | 27377 ft | 468 kts | 69° |
| 2026-04-29 07:29 | 27.24090 | 85.71305 | 26670 ft | 455 kts | 66° |
| 2026-04-29 07:30 | 27.25373 | 85.74413 | 26028 ft | 434 kts | 56° |
| 2026-04-29 07:30 | 27.27045 | 85.77123 | 25427 ft | 414 kts | 45° |
| 2026-04-29 07:30 | 27.29025 | 85.79361 | 24863 ft | 393 kts | 34° |
| 2026-04-29 07:31 | 27.33585 | 85.82361 | 23800 ft | 383 kts | 18° |
| 2026-04-29 07:31 | 27.36064 | 85.83202 | 23251 ft | 368 kts | 7° |
| 2026-04-29 07:31 | 27.38561 | 85.83490 | 22770 ft | 363 kts | 0° |
| 2026-04-29 07:31 | 27.41077 | 85.83628 | 22223 ft | 364 kts | 1° |
| 2026-04-29 07:32 | 27.43589 | 85.83814 | 21720 ft | 361 kts | 1° |
| 2026-04-29 07:32 | 27.46058 | 85.83974 | 21214 ft | 347 kts | 359° |
| 2026-04-29 07:32 | 27.48428 | 85.83824 | 20738 ft | 352 kts | 349° |
| 2026-04-29 07:32 | 27.50741 | 85.82994 | 20343 ft | 348 kts | 333° |
| 2026-04-29 07:33 | 27.52826 | 85.81660 | 20136 ft | 335 kts | 327° |
| 2026-04-29 07:33 | 27.54654 | 85.80100 | 19736 ft | 331 kts | 315° |
| 2026-04-29 07:33 | 27.55978 | 85.78032 | 19323 ft | 328 kts | 300° |
| 2026-04-29 07:33 | 27.57011 | 85.75764 | 18875 ft | 326 kts | 296° |
| 2026-04-29 07:34 | 27.57775 | 85.73370 | 18459 ft | 324 kts | 289° |
| 2026-04-29 07:34 | 27.58419 | 85.70967 | 18043 ft | 320 kts | 290° |
| 2026-04-29 07:34 | 27.59090 | 85.68597 | 17631 ft | 317 kts | 290° |
| 2026-04-29 07:34 | 27.59757 | 85.66246 | 17222 ft | 314 kts | 290° |
| 2026-04-29 07:35 | 27.60411 | 85.63899 | 16817 ft | 316 kts | 290° |
| 2026-04-29 07:35 | 27.61071 | 85.61526 | 16403 ft | 320 kts | 289° |
| 2026-04-29 07:35 | 27.61741 | 85.59116 | 15979 ft | 320 kts | 289° |
| 2026-04-29 07:35 | 27.62404 | 85.56724 | 15559 ft | 318 kts | 289° |
| 2026-04-29 07:36 | 27.63053 | 85.54380 | 15150 ft | 316 kts | 289° |
| 2026-04-29 07:36 | 27.63708 | 85.52013 | 14736 ft | 314 kts | 289° |
| 2026-04-29 07:36 | 27.64355 | 85.49670 | 14326 ft | 313 kts | 289° |
| 2026-04-29 07:36 | 27.65035 | 85.47356 | 13916 ft | 311 kts | 293° |
| 2026-04-29 07:37 | 27.65957 | 85.45210 | 13639 ft | 303 kts | 303° |
| 2026-04-29 07:37 | 27.67147 | 85.43299 | 13549 ft | 289 kts | 311° |
| 2026-04-29 07:37 | 27.68467 | 85.41689 | 13469 ft | 272 kts | 319° |
| 2026-04-29 07:37 | 27.69860 | 85.40360 | 13359 ft | 256 kts | 322° |
| 2026-04-29 07:38 | 27.71193 | 85.39106 | 13269 ft | 241 kts | 321° |
| 2026-04-29 07:38 | 27.72410 | 85.37878 | 13072 ft | 233 kts | 314° |
| 2026-04-29 07:38 | 27.73332 | 85.36385 | 12815 ft | 234 kts | 297° |
| 2026-04-29 07:38 | 27.73853 | 85.34646 | 12548 ft | 237 kts | 282° |
| 2026-04-29 07:39 | 27.73950 | 85.32783 | 12279 ft | 238 kts | 264° |
| 2026-04-29 07:39 | 27.73553 | 85.30978 | 12027 ft | 238 kts | 248° |
| 2026-04-29 07:39 | 27.72750 | 85.29358 | 11759 ft | 238 kts | 232° |
| 2026-04-29 07:39 | 27.71579 | 85.28078 | 11502 ft | 237 kts | 216° |
| 2026-04-29 07:40 | 27.70132 | 85.27210 | 11239 ft | 236 kts | 201° |
| 2026-04-29 07:40 | 27.68542 | 85.26823 | 10978 ft | 234 kts | 184° |
| 2026-04-29 07:40 | 27.66936 | 85.26959 | 10722 ft | 233 kts | 169° |
| 2026-04-29 07:40 | 27.65436 | 85.27611 | 10540 ft | 229 kts | 147° |
| 2026-04-29 07:41 | 27.64245 | 85.28818 | 10523 ft | 233 kts | 136° |
| 2026-04-29 07:41 | 27.63125 | 85.30102 | 10106 ft | 232 kts | 134° |
| 2026-04-29 07:41 | 27.62231 | 85.31598 | 9718 ft | 227 kts | 118° |
| 2026-04-29 07:41 | 27.61864 | 85.33266 | 9462 ft | 218 kts | 100° |
| 2026-04-29 07:42 | 27.61672 | 85.34920 | 9203 ft | 208 kts | 96° |
| 2026-04-29 07:42 | 27.61739 | 85.36543 | 8995 ft | 206 kts | 81° |
| 2026-04-29 07:42 | 27.62257 | 85.38068 | 8660 ft | 214 kts | 62° |
| 2026-04-29 07:42 | 27.62951 | 85.39555 | 8172 ft | 217 kts | 62° |
| 2026-04-29 07:43 | 27.63804 | 85.40884 | 8032 ft | 203 kts | 48° |
| 2026-04-29 07:43 | 27.64786 | 85.42066 | 8005 ft | 208 kts | 47° |
| 2026-04-29 07:43 | 27.65765 | 85.43262 | 7936 ft | 209 kts | 47° |
| 2026-04-29 07:43 | 27.66752 | 85.44469 | 7868 ft | 207 kts | 47° |
| 2026-04-29 07:44 | 27.67716 | 85.45643 | 7827 ft | 205 kts | 46° |
| 2026-04-29 07:44 | 27.68785 | 85.46677 | 7501 ft | 200 kts | 31° |
| 2026-04-29 07:44 | 27.70025 | 85.47315 | 7063 ft | 195 kts | 13° |
| 2026-04-29 07:44 | 27.71319 | 85.47433 | 6768 ft | 188 kts | 350° |
| 2026-04-29 07:45 | 27.72559 | 85.47034 | 6656 ft | 186 kts | 331° |
| 2026-04-29 07:45 | 27.73650 | 85.46230 | 6505 ft | 186 kts | 315° |
| 2026-04-29 07:45 | 27.74457 | 85.45165 | 6274 ft | 178 kts | 298° |
| 2026-04-29 07:45 | 27.74922 | 85.43919 | 5915 ft | 173 kts | 279° |
| 2026-04-29 07:46 | 27.75025 | 85.42587 | 5645 ft | 167 kts | 263° |
| 2026-04-29 07:46 | 27.74801 | 85.41309 | 5472 ft | 165 kts | 250° |
| 2026-04-29 07:46 | 27.74370 | 85.40134 | 5218 ft | 161 kts | 242° |
| 2026-04-29 07:46 | 27.73817 | 85.39048 | 4961 ft | 158 kts | 236° |
| 2026-04-29 07:47 | 27.73140 | 85.38058 | 4752 ft | 160 kts | 226° |
| 2026-04-29 07:47 | 27.72326 | 85.37230 | 4652 ft | 160 kts | 215° |
| 2026-04-29 07:47 | 27.71310 | 85.36674 | 4482 ft | 161 kts | 203° |
| 2026-04-29 07:47 | 27.70323 | 85.36221 | 4400 ft | 143 kts | 202° |
| 2026-04-29 07:48 | 27.69613 | 85.35892 | 4399 ft | 78 kts | 201° |
| 2026-04-29 07:48 | 27.69242 | 85.35725 | 4399 ft | 40 kts | 201° |
| 2026-04-29 07:48 | 27.69054 | 85.35630 | 4399 ft | 23 kts | 224° |
| 2026-04-29 07:48 | 27.69049 | 85.35558 | 4399 ft | 0 kts | 349° |
| 2026-04-29 07:49 | 27.69148 | 85.35568 | 4399 ft | 22 kts | 20° |
| 2026-04-29 07:49 | 27.69325 | 85.35647 | 4399 ft | 43 kts | 21° |
| 2026-04-29 07:49 | 27.69600 | 85.35773 | 4399 ft | 40 kts | 21° |
| 2026-04-29 07:49 | 27.69852 | 85.35887 | 4399 ft | 37 kts | 22° |
| 2026-04-29 07:50 | 27.70062 | 85.35983 | 4399 ft | 26 kts | 22° |
| 2026-04-29 07:50 | 27.70131 | 85.35995 | 4399 ft | 0 kts | 283° |
| 2026-04-29 07:50 | 27.70128 | 85.35970 | 4399 ft | 4 kts | 266° |
| 2026-04-29 07:50 | 27.70133 | 85.35945 | 4399 ft | 1 kts | 284° |
| 2026-04-29 07:51 | 27.70133 | 85.35944 | 4399 ft | 0 kts | 300° |
| 2026-04-29 07:51 | 27.70134 | 85.35941 | 4399 ft | 0 kts | 295° |
| 2026-04-29 07:51 | 27.70136 | 85.35934 | 4399 ft | 1 kts | 287° |
| 2026-04-29 07:51 | 27.70142 | 85.35915 | 4399 ft | 2 kts | 289° |
| 2026-04-29 07:52 | 27.70143 | 85.35913 | 4399 ft | 0 kts | 290° |